Time;durP1;ratioP1;P1;durP2;ratioP2;P2;SDS_P1;SDS_P2;PMS_P1;PMS_P2;Temp;Humidity;BMP_temperature;BMP_pressure;BME280_temperature;BME280_humidity;BME280_pressure;Samples;Min_cycle;Max_cycle;Signal;HPM_P1;HPM_P2
2021/03/15 00:02:10;;;;;;;1.45;0.57;;;;;;;8.92;60.50;100020.47;4920453;28;114249;-63
2021/03/15 00:04:36;;;;;;;1.10;0.50;;;;;;;8.89;60.41;100018.31;4919338;28;121529;-64
2021/03/15 00:07:02;;;;;;;1.20;0.50;;;;;;;8.88;60.98;100008.59;4917847;28;114731;-60
2021/03/15 00:09:28;;;;;;;1.75;0.43;;;;;;;8.90;60.68;100005.66;4901321;28;110556;-60
2021/03/15 00:11:55;;;;;;;1.38;0.50;;;;;;;8.91;60.54;100008.09;4918931;28;98332;-63
2021/03/15 00:14:21;;;;;;;1.55;0.60;;;;;;;8.90;60.68;100013.75;4921547;28;122160;-64
2021/03/15 00:16:48;;;;;;;1.30;0.50;;;;;;;8.89;60.53;100012.94;4905798;28;111909;-60
2021/03/15 00:19:14;;;;;;;1.40;0.40;;;;;;;8.91;60.88;100009.97;4922118;28;99081;-63
2021/03/15 00:21:40;;;;;;;1.30;0.40;;;;;;;8.92;60.81;100014.25;4922660;28;127320;-63
2021/03/15 00:24:07;;;;;;;2.28;0.63;;;;;;;8.90;60.64;100011.06;4920625;28;127371;-64
2021/03/15 00:26:33;;;;;;;1.50;0.50;;;;;;;8.89;61.00;100006.75;4906397;28;98151;-64
2021/03/15 00:28:59;;;;;;;1.67;0.55;;;;;;;8.93;60.72;100005.94;4922087;28;128050;-64
2021/03/15 00:31:26;;;;;;;1.13;0.50;;;;;;;8.91;60.95;100005.41;4922326;28;126477;-60
2021/03/15 00:33:52;;;;;;;1.85;0.50;;;;;;;8.89;60.54;100004.88;4922558;28;122791;-63
2021/03/15 00:36:18;;;;;;;1.48;0.60;;;;;;;8.90;60.53;100005.66;4922451;28;123260;-60
2021/03/15 00:38:45;;;;;;;1.42;0.60;;;;;;;8.87;60.81;100000.81;4922174;28;110429;-60
2021/03/15 00:41:11;;;;;;;1.08;0.47;;;;;;;8.89;60.92;99996.81;4920713;28;123457;-64
2021/03/15 00:43:37;;;;;;;1.77;0.70;;;;;;;8.83;60.68;100000.53;4920930;28;122315;-59
2021/03/15 00:46:03;;;;;;;1.95;0.50;;;;;;;8.88;60.46;99992.47;4905501;28;98266;-60
2021/03/15 00:48:29;;;;;;;1.25;0.50;;;;;;;8.78;61.35;99995.16;4921839;28;126992;-63
2021/03/15 00:50:55;;;;;;;1.05;0.40;;;;;;;8.85;61.10;99993.03;4923191;28;102650;-60
2021/03/15 00:53:21;;;;;;;0.80;0.35;;;;;;;8.81;61.01;99984.69;4923720;28;103984;-63
2021/03/15 00:55:47;;;;;;;1.50;0.50;;;;;;;8.82;60.82;99990.88;4923432;28;98240;-63
2021/03/15 00:58:13;;;;;;;1.40;0.50;;;;;;;8.77;60.74;99985.50;4921792;28;128071;-63
2021/03/15 01:00:40;;;;;;;1.02;0.45;;;;;;;8.80;60.93;99993.00;4923629;28;99053;-64
2021/03/15 01:03:06;;;;;;;1.00;0.43;;;;;;;8.83;60.54;99992.47;4922594;28;102423;-60
2021/03/15 01:05:41;;;;;;;1.35;0.60;;;;;;;8.94;60.59;99993.31;4922337;28;100798;-60
2021/03/15 01:08:14;;;;;;;1.10;0.50;;;;;;;8.94;60.32;99990.63;4922047;28;98871;-64
2021/03/15 01:10:41;;;;;;;1.98;0.70;;;;;;;8.96;60.71;99972.31;4923420;28;100798;-64
2021/03/15 01:13:08;;;;;;;1.63;0.63;;;;;;;8.87;60.50;99982.00;4922450;28;97752;-63
2021/03/15 01:15:34;;;;;;;2.22;0.50;;;;;;;8.89;60.28;99978.00;4923371;28;97647;-60
2021/03/15 01:18:01;;;;;;;1.67;0.60;;;;;;;8.88;60.18;99978.25;4919998;28;99488;-60
2021/03/15 01:20:27;;;;;;;1.75;0.80;;;;;;;8.94;60.18;99982.56;4922080;28;99050;-60
2021/03/15 01:22:55;;;;;;;1.65;0.73;;;;;;;8.91;59.88;99975.03;4922002;28;125294;-61
2021/03/15 01:25:34;;;;;;;1.17;0.65;;;;;;;8.96;60.02;99973.16;4921355;28;98126;-60
2021/03/15 01:28:01;;;;;;;1.25;0.50;;;;;;;8.90;60.37;99974.22;4920253;28;98351;-63
2021/03/15 01:30:29;;;;;;;1.75;0.73;;;;;;;8.96;59.93;99966.94;4923504;28;98328;-64
2021/03/15 01:32:56;;;;;;;1.65;0.88;;;;;;;8.91;60.54;99966.97;4920916;28;98042;-60
2021/03/15 01:35:22;;;;;;;1.33;0.77;;;;;;;8.93;60.37;99962.94;4922794;28;97757;-63
2021/03/15 01:37:48;;;;;;;1.38;0.50;;;;;;;8.98;60.00;99962.94;4922178;28;98740;-60
2021/03/15 01:40:15;;;;;;;1.23;0.63;;;;;;;8.98;60.25;99956.75;4921824;28;113124;-64
2021/03/15 01:42:41;;;;;;;1.83;0.80;;;;;;;8.94;60.36;99955.69;4953786;28;97744;-60
2021/03/15 01:45:08;;;;;;;1.17;0.68;;;;;;;8.97;60.11;99947.09;4954299;28;97792;-63
2021/03/15 01:47:34;;;;;;;1.65;0.70;;;;;;;8.97;60.35;99941.72;4921214;28;118005;-63
2021/03/15 01:50:02;;;;;;;1.73;0.60;;;;;;;8.93;60.39;99943.31;4921358;28;112185;-60
2021/03/15 01:52:28;;;;;;;1.55;0.82;;;;;;;8.94;60.01;99943.03;4922837;28;98515;-64
2021/03/15 01:54:54;;;;;;;1.63;0.90;;;;;;;8.97;60.15;99944.38;4936156;28;121714;-63
2021/03/15 01:57:20;;;;;;;2.78;1.00;;;;;;;8.90;60.55;99944.66;4921696;28;97966;-63
2021/03/15 01:59:46;;;;;;;1.60;1.10;;;;;;;8.95;60.61;99938.47;4952506;28;118871;-60
2021/03/15 02:02:13;;;;;;;2.10;1.00;;;;;;;8.92;60.19;99934.44;4920262;28;98234;-60
2021/03/15 02:04:39;;;;;;;1.65;0.75;;;;;;;8.92;60.42;99937.13;4921883;28;98158;-63
2021/03/15 02:07:05;;;;;;;1.70;1.00;;;;;;;8.93;60.40;99927.19;4922432;28;98409;-63
2021/03/15 02:09:32;;;;;;;1.50;0.98;;;;;;;8.97;60.77;99929.06;4921154;28;128134;-60
2021/03/15 02:12:25;;;;;;;2.03;1.13;;;;;;;8.91;60.65;99922.06;4902401;28;127364;-63
2021/03/15 02:15:15;;;;;;;1.75;1.00;;;;;;;8.86;60.65;99924.75;4919859;28;98388;-64
2021/03/15 02:17:50;;;;;;;1.88;1.10;;;;;;;8.84;60.71;99916.97;4919999;28;98256;-64
2021/03/15 02:20:35;;;;;;;1.70;1.00;;;;;;;8.93;60.24;99919.13;4889085;28;101731;-60
2021/03/15 02:23:05;;;;;;;1.73;1.00;;;;;;;8.90;60.70;99927.72;4921534;28;97619;-63
2021/03/15 02:26:15;;;;;;;2.88;1.10;;;;;;;8.88;61.41;99921.78;4920322;28;97763;-63
2021/03/15 02:29:11;;;;;;;2.17;1.00;;;;;;;8.85;61.10;99929.34;4921104;28;98796;-64
2021/03/15 02:32:13;;;;;;;2.28;1.33;;;;;;;8.79;60.82;99933.09;4919241;28;99451;-59
2021/03/15 02:35:03;;;;;;;2.50;1.08;;;;;;;8.81;61.32;99932.84;4919668;28;98023;-60
2021/03/15 02:37:34;;;;;;;1.65;1.05;;;;;;;8.78;61.19;99930.66;4919595;28;97999;-60
2021/03/15 02:40:11;;;;;;;1.80;1.10;;;;;;;8.74;61.36;99924.22;4935123;28;98028;-63
2021/03/15 02:42:38;;;;;;;1.65;1.13;;;;;;;8.74;60.80;99925.03;4951894;28;100452;-60
2021/03/15 02:45:05;;;;;;;1.90;1.20;;;;;;;8.75;61.07;99923.13;4951550;28;122169;-60
2021/03/15 02:47:31;;;;;;;3.60;1.40;;;;;;;8.75;61.25;99925.81;4951580;28;112455;-60
2021/03/15 02:50:07;;;;;;;1.80;1.15;;;;;;;8.72;60.65;99919.09;4902903;28;98430;-60
2021/03/15 02:52:34;;;;;;;1.95;1.10;;;;;;;8.72;61.02;99923.66;4951887;28;119395;-63
2021/03/15 02:55:00;;;;;;;1.70;1.10;;;;;;;8.76;60.90;99914.81;4917905;28;121055;-58
2021/03/15 02:57:30;;;;;;;2.10;1.20;;;;;;;8.74;61.06;99922.34;4918949;28;98629;-58
2021/03/15 02:59:56;;;;;;;1.85;1.20;;;;;;;8.72;61.27;99921.78;4903589;28;98165;-58
2021/03/15 03:02:23;;;;;;;2.00;1.17;;;;;;;8.71;61.12;99916.69;4919861;28;98435;-58
2021/03/15 03:04:49;;;;;;;2.65;1.42;;;;;;;8.70;61.19;99923.16;4902151;28;122607;-58
2021/03/15 03:07:16;;;;;;;1.90;1.20;;;;;;;8.68;61.10;99919.91;4919035;28;97987;-61
2021/03/15 03:09:43;;;;;;;1.80;1.23;;;;;;;8.73;61.38;99922.63;4902988;28;99079;-58
2021/03/15 03:12:11;;;;;;;2.58;1.42;;;;;;;8.68;60.86;99926.09;4918964;28;123315;-61
2021/03/15 03:14:38;;;;;;;2.63;1.40;;;;;;;8.70;61.29;99915.88;4918987;28;98265;-61
2021/03/15 03:17:04;;;;;;;2.10;1.38;;;;;;;8.71;60.59;99914.00;4919402;28;97802;-61
2021/03/15 03:19:30;;;;;;;1.88;1.27;;;;;;;8.76;60.87;99914.00;4917892;28;127688;-58
2021/03/15 03:21:57;;;;;;;2.85;1.70;;;;;;;8.70;61.01;99915.09;4920687;28;98021;-58
2021/03/15 03:24:24;;;;;;;2.05;1.45;;;;;;;8.69;61.15;99914.28;4901981;28;98138;-58
2021/03/15 03:26:51;;;;;;;2.75;1.30;;;;;;;8.74;60.94;99924.22;4918736;28;98319;-63
2021/03/15 03:29:17;;;;;;;2.45;1.38;;;;;;;8.70;60.84;99921.25;4918497;28;125927;-58
2021/03/15 03:31:45;;;;;;;2.40;1.38;;;;;;;8.69;60.83;99914.28;4919202;28;98623;-62
2021/03/15 03:34:12;;;;;;;3.15;1.58;;;;;;;8.76;61.06;99914.00;4903048;28;98366;-61
2021/03/15 03:36:38;;;;;;;2.30;1.60;;;;;;;8.71;60.77;99916.69;4921814;28;97677;-61
2021/03/15 03:39:06;;;;;;;2.80;1.50;;;;;;;8.74;61.11;99919.66;4918675;28;107586;-58
2021/03/15 03:41:32;;;;;;;1.83;1.20;;;;;;;8.72;61.17;99921.78;4921128;28;98595;-62
2021/03/15 03:43:58;;;;;;;1.95;1.40;;;;;;;8.75;60.85;99920.44;4920171;28;99426;-57
2021/03/15 03:46:24;;;;;;;1.90;1.40;;;;;;;8.77;61.04;99915.63;4919796;28;123532;-58
2021/03/15 03:48:50;;;;;;;3.00;1.60;;;;;;;8.77;61.13;99913.75;4921574;28;120712;-58
2021/03/15 03:51:19;;;;;;;2.78;1.60;;;;;;;8.72;61.02;99908.34;4922084;28;101630;-62
2021/03/15 03:53:53;;;;;;;1.98;1.30;;;;;;;8.71;61.04;99911.31;4905539;28;98237;-61
2021/03/15 03:56:34;;;;;;;1.60;1.35;;;;;;;8.71;61.18;99914.81;4889974;28;98074;-58
2021/03/15 03:59:00;;;;;;;2.05;1.50;;;;;;;8.72;61.08;99908.34;4921488;28;99219;-58
2021/03/15 04:01:41;;;;;;;2.70;1.58;;;;;;;8.75;60.78;99912.38;4923271;28;128500;-57
2021/03/15 04:04:08;;;;;;;2.20;1.45;;;;;;;8.75;61.16;99918.56;4924237;28;98682;-58
2021/03/15 04:06:35;;;;;;;2.47;1.55;;;;;;;8.70;61.26;99909.72;4921478;28;98987;-58
2021/03/15 04:09:13;;;;;;;2.63;1.70;;;;;;;8.70;61.12;99913.19;4921029;28;98450;-62
2021/03/15 04:11:48;;;;;;;2.22;1.63;;;;;;;8.68;61.58;99911.84;4923300;28;103095;-58
2021/03/15 04:14:21;;;;;;;2.88;1.80;;;;;;;8.67;61.09;99921.00;4904986;28;119499;-62
2021/03/15 04:16:47;;;;;;;2.78;1.58;;;;;;;8.70;61.70;99917.78;4921599;28;113402;-59
2021/03/15 04:19:13;;;;;;;2.08;1.60;;;;;;;8.65;61.25;99910.53;4938315;28;103321;-58
2021/03/15 04:21:40;;;;;;;2.63;1.52;;;;;;;8.72;61.25;99905.66;4952995;28;122832;-63
2021/03/15 04:24:07;;;;;;;2.55;1.85;;;;;;;8.64;61.03;99908.09;4905950;28;98107;-59
2021/03/15 04:26:33;;;;;;;2.25;1.52;;;;;;;8.73;61.27;99906.50;4904356;28;113932;-59
2021/03/15 04:29:00;;;;;;;2.20;1.70;;;;;;;8.65;61.47;99909.72;4953519;28;98647;-62
2021/03/15 04:31:26;;;;;;;3.60;1.80;;;;;;;8.70;61.29;99912.41;4920536;28;119942;-59
2021/03/15 04:33:53;;;;;;;2.60;1.80;;;;;;;8.67;61.74;99913.72;4937061;28;98320;-62
2021/03/15 04:36:19;;;;;;;2.78;1.70;;;;;;;8.68;61.45;99904.59;4937202;28;116837;-59
2021/03/15 04:38:45;;;;;;;2.55;1.63;;;;;;;8.69;62.00;99906.22;4905721;28;98270;-59
2021/03/15 04:41:11;;;;;;;3.40;1.70;;;;;;;8.63;61.58;99906.47;4904279;28;128311;-59
2021/03/15 04:43:38;;;;;;;2.00;1.65;;;;;;;8.66;61.39;99897.88;4953790;28;119468;-62
2021/03/15 04:46:08;;;;;;;2.92;2.00;;;;;;;8.61;61.53;99896.00;4937887;28;97849;-59
2021/03/15 04:48:34;;;;;;;2.05;1.70;;;;;;;8.59;61.46;99898.94;4935974;28;119146;-59
2021/03/15 04:51:01;;;;;;;2.40;1.90;;;;;;;8.54;61.98;99900.84;4905241;28;98653;-59
2021/03/15 04:53:28;;;;;;;3.13;1.80;;;;;;;8.56;61.32;99898.66;4920138;28;121434;-58
2021/03/15 04:55:57;;;;;;;2.70;2.00;;;;;;;8.50;61.85;99903.25;4921060;28;112698;-63
2021/03/15 04:58:23;;;;;;;3.20;2.30;;;;;;;8.56;61.75;99904.03;4888075;28;112770;-59
2021/03/15 05:00:49;;;;;;;2.65;2.00;;;;;;;8.52;61.30;99914.50;4887353;28;127029;-63
2021/03/15 05:03:16;;;;;;;2.35;1.98;;;;;;;8.47;61.80;99919.09;4920004;28;118344;-59
2021/03/15 05:05:43;;;;;;;2.92;2.10;;;;;;;8.45;61.95;99903.25;4921337;28;111831;-62
2021/03/15 05:08:13;;;;;;;3.08;1.85;;;;;;;8.46;62.38;99910.22;4904329;28;97862;-63
2021/03/15 05:10:39;;;;;;;4.03;2.10;;;;;;;8.46;62.00;99912.09;4919875;28;118579;-59
2021/03/15 05:13:05;;;;;;;2.63;1.90;;;;;;;8.42;61.73;99902.97;4936016;28;117859;-63
2021/03/15 05:15:33;;;;;;;2.55;1.98;;;;;;;8.45;61.74;99908.63;4904320;28;121273;-59
2021/03/15 05:17:59;;;;;;;3.20;2.28;;;;;;;8.47;61.97;99908.34;4922514;28;98198;-58
2021/03/15 05:20:25;;;;;;;3.42;1.90;;;;;;;8.41;61.79;99914.75;4887229;28;127051;-58
2021/03/15 05:22:52;;;;;;;3.78;2.30;;;;;;;8.45;62.04;99911.31;4884891;28;98044;-59
2021/03/15 05:25:19;;;;;;;2.85;2.15;;;;;;;8.44;61.93;99911.56;4901503;28;98332;-62
2021/03/15 05:27:45;;;;;;;2.72;1.85;;;;;;;8.44;61.87;99915.03;4901713;28;100653;-62
2021/03/15 05:30:13;;;;;;;2.35;1.92;;;;;;;8.43;61.81;99915.31;4899721;28;128227;-59
2021/03/15 05:32:41;;;;;;;3.45;2.15;;;;;;;8.46;62.16;99909.41;4919045;28;110074;-62
2021/03/15 05:35:09;;;;;;;3.72;2.25;;;;;;;8.45;61.89;99905.09;4950712;28;97853;-62
2021/03/15 05:37:35;;;;;;;3.10;2.03;;;;;;;8.45;61.46;99908.63;4899912;28;123521;-62
2021/03/15 05:40:01;;;;;;;3.60;2.15;;;;;;;8.55;61.59;99903.25;4900375;28;127466;-60
2021/03/15 05:42:46;;;;;;;3.00;1.88;;;;;;;8.56;61.88;99904.03;4918706;28;100347;-62
2021/03/15 05:45:55;;;;;;;3.47;1.92;;;;;;;8.59;61.39;99898.13;4917599;28;98073;-62
2021/03/15 05:48:41;;;;;;;3.25;2.20;;;;;;;8.61;60.94;99893.31;4919039;28;97970;-59
2021/03/15 05:51:36;;;;;;;2.45;2.00;;;;;;;8.77;60.85;99894.13;4909524;28;98796;-59
2021/03/15 05:54:49;;;;;;;3.50;1.75;;;;;;;8.88;60.28;99892.22;4917698;28;98294;-58
2021/03/15 05:58:03;;;;;;;3.03;2.08;;;;;;;8.99;60.51;99897.31;4918988;28;98057;-59
2021/03/15 06:00:45;;;;;;;2.90;1.75;;;;;;;9.07;59.96;99886.03;4917354;28;98580;-61
2021/03/15 06:03:49;;;;;;;3.45;2.00;;;;;;;9.18;60.23;99880.63;4917781;28;98697;-59
2021/03/15 06:06:21;;;;;;;2.45;1.90;;;;;;;9.30;59.78;99876.56;4917532;28;98273;-59
2021/03/15 06:08:47;;;;;;;2.80;1.90;;;;;;;9.29;59.67;99874.97;4919671;28;98248;-59
2021/03/15 06:11:18;;;;;;;2.38;1.80;;;;;;;9.33;59.17;99876.03;4917962;28;98433;-59
2021/03/15 06:13:45;;;;;;;2.30;1.80;;;;;;;9.37;59.46;99879.00;4916735;28;99028;-59
2021/03/15 06:16:11;;;;;;;2.47;1.70;;;;;;;9.46;59.54;99873.84;4900443;28;98076;-62
2021/03/15 06:18:38;;;;;;;2.60;1.80;;;;;;;9.54;59.36;99870.59;4916136;28;123560;-62
2021/03/15 06:21:05;;;;;;;3.53;1.90;;;;;;;9.66;58.42;99871.06;4917174;28;98165;-59
2021/03/15 06:23:31;;;;;;;2.72;2.05;;;;;;;9.73;58.78;99868.09;4917055;28;98494;-62
2021/03/15 06:25:57;;;;;;;3.17;1.80;;;;;;;9.80;58.67;99866.72;4918130;28;103818;-59
2021/03/15 06:28:24;;;;;;;2.53;1.90;;;;;;;9.89;58.76;99863.44;4918905;28;98477;-59
2021/03/15 06:30:54;;;;;;;3.13;1.85;;;;;;;10.01;58.13;99872.00;4918278;28;98608;-59
2021/03/15 06:33:20;;;;;;;3.35;2.10;;;;;;;10.10;57.99;99864.97;4918149;28;98706;-59
2021/03/15 06:35:49;;;;;;;3.20;2.00;;;;;;;10.15;58.30;99866.81;4916898;28;127645;-59
2021/03/15 06:38:18;;;;;;;3.33;2.20;;;;;;;10.14;57.93;99868.72;4916467;28;98002;-63
2021/03/15 06:40:44;;;;;;;2.75;2.00;;;;;;;10.15;57.91;99872.19;4899787;28;119345;-63
2021/03/15 06:43:15;;;;;;;3.75;2.00;;;;;;;10.15;58.48;99866.81;4948446;28;115235;-63
2021/03/15 06:45:51;;;;;;;2.70;2.00;;;;;;;10.27;57.63;99870.00;4916891;28;121798;-59
2021/03/15 06:48:21;;;;;;;3.92;2.30;;;;;;;10.50;57.83;99863.09;4918274;28;119041;-63
2021/03/15 06:50:47;;;;;;;3.50;2.42;;;;;;;10.79;56.41;99863.13;4916288;28;97878;-63
2021/03/15 06:53:14;;;;;;;3.45;2.20;;;;;;;11.05;55.83;99864.50;4917345;28;113391;-62
2021/03/15 06:55:43;;;;;;;3.55;2.38;;;;;;;11.21;56.09;99875.16;4917700;28;126182;-63
2021/03/15 06:58:28;;;;;;;3.70;2.75;;;;;;;11.42;55.53;99865.75;4918108;28;98015;-63
2021/03/15 07:01:10;;;;;;;3.40;2.17;;;;;;;11.47;55.40;99867.56;4916426;28;98853;-59
2021/03/15 07:03:37;;;;;;;3.05;2.45;;;;;;;11.41;55.82;99872.22;4900142;28;101277;-59
2021/03/15 07:06:04;;;;;;;4.22;2.20;;;;;;;11.28;56.10;99871.03;4899676;28;98903;-62
2021/03/15 07:08:30;;;;;;;3.20;2.20;;;;;;;11.22;57.04;99877.56;4916741;28;97933;-59
2021/03/15 07:10:56;;;;;;;3.85;2.25;;;;;;;11.26;57.53;99875.91;4917968;28;97991;-63
2021/03/15 07:13:24;;;;;;;3.60;2.35;;;;;;;11.22;56.82;99880.25;4899086;28;97926;-59
2021/03/15 07:15:55;;;;;;;3.25;2.30;;;;;;;11.27;57.03;99874.78;4917840;28;98603;-63
2021/03/15 07:18:26;;;;;;;3.08;2.20;;;;;;;11.39;57.17;99879.00;4917604;28;97852;-59
2021/03/15 07:20:57;;;;;;;3.63;1.98;;;;;;;11.46;57.20;99882.97;4949765;28;99170;-63
2021/03/15 07:23:49;;;;;;;4.13;2.58;;;;;;;11.58;57.06;99877.16;4915755;28;112674;-59
2021/03/15 07:26:30;;;;;;;3.08;2.50;;;;;;;11.78;56.38;99878.81;4917970;28;97767;-59
2021/03/15 07:28:56;;;;;;;3.13;2.42;;;;;;;11.87;56.24;99874.44;4914894;28;98027;-59
2021/03/15 07:31:26;;;;;;;2.95;2.28;;;;;;;12.11;55.41;99874.38;4916513;28;98061;-63
2021/03/15 07:33:55;;;;;;;3.33;2.60;;;;;;;12.21;55.79;99878.81;4917876;28;98546;-63
2021/03/15 07:36:28;;;;;;;4.25;2.45;;;;;;;12.18;55.92;99874.00;4917278;28;98481;-63
2021/03/15 07:38:55;;;;;;;4.75;2.40;;;;;;;11.92;56.74;99879.75;4917617;28;97980;-63
2021/03/15 07:41:22;;;;;;;3.63;2.55;;;;;;;11.71;57.00;99881.06;4917819;28;98674;-59
2021/03/15 07:43:49;;;;;;;4.32;2.95;;;;;;;11.55;57.36;99883.13;4948538;28;98586;-63
2021/03/15 07:46:23;;;;;;;4.32;2.70;;;;;;;11.44;58.62;99879.75;4949541;28;98235;-63
2021/03/15 07:48:49;;;;;;;3.42;2.40;;;;;;;11.26;59.00;99888.59;4916275;28;97865;-59
2021/03/15 07:51:39;;;;;;;4.03;2.58;;;;;;;11.23;59.35;99887.25;4916014;28;98188;-59
2021/03/15 07:54:10;;;;;;;3.78;2.35;;;;;;;11.11;59.86;99891.44;4914312;28;129711;-63
2021/03/15 07:56:36;;;;;;;4.05;2.85;;;;;;;10.97;59.98;99892.09;4917274;28;97899;-62
2021/03/15 07:59:03;;;;;;;2.95;2.60;;;;;;;10.91;60.08;99895.13;4915593;28;98160;-62
2021/03/15 08:01:29;;;;;;;3.65;2.78;;;;;;;10.84;60.23;99894.63;4915311;28;112099;-59
2021/03/15 08:03:56;;;;;;;5.22;3.05;;;;;;;10.82;60.72;99889.53;4915784;28;124763;-59
2021/03/15 08:06:22;;;;;;;3.72;2.67;;;;;;;10.79;60.91;99890.09;4918043;28;97983;-59
2021/03/15 08:08:49;;;;;;;4.90;2.60;;;;;;;10.87;61.14;99892.19;4916868;28;97743;-62
2021/03/15 08:11:17;;;;;;;3.50;2.35;;;;;;;10.84;60.97;99891.94;4948602;28;98391;-63
2021/03/15 08:13:49;;;;;;;3.60;2.58;;;;;;;10.96;60.54;99886.97;4916734;28;98047;-59
2021/03/15 08:16:21;;;;;;;3.40;2.40;;;;;;;11.13;60.17;99891.97;4900074;28;98006;-63
2021/03/15 08:18:48;;;;;;;3.60;2.67;;;;;;;11.33;58.98;99889.06;4915849;28;98191;-62
2021/03/15 08:21:36;;;;;;;3.35;2.70;;;;;;;11.40;59.47;99884.13;4948286;28;98559;-62
2021/03/15 08:24:02;;;;;;;4.13;2.40;;;;;;;11.45;59.52;99884.06;4914699;28;122636;-59
2021/03/15 08:26:29;;;;;;;3.90;2.63;;;;;;;11.55;59.10;99878.56;4898845;28;98661;-63
2021/03/15 08:28:58;;;;;;;2.85;2.45;;;;;;;11.60;59.30;99882.28;4892261;28;97946;-59
2021/03/15 08:31:35;;;;;;;3.85;2.70;;;;;;;11.58;59.45;99879.06;4915210;28;103446;-59
2021/03/15 08:34:02;;;;;;;3.38;2.40;;;;;;;11.43;59.67;99885.44;4931974;28;113421;-63
2021/03/15 08:36:45;;;;;;;3.78;2.60;;;;;;;11.51;60.29;99880.22;4901576;28;128085;-59
2021/03/15 08:39:26;;;;;;;3.35;2.47;;;;;;;11.54;60.67;99879.63;4920817;28;98024;-61
2021/03/15 08:42:13;;;;;;;2.88;2.20;;;;;;;11.64;59.84;99881.41;4919857;28;98183;-59
2021/03/15 08:44:44;;;;;;;2.88;2.47;;;;;;;11.67;59.85;99877.31;4920172;28;99280;-59
2021/03/15 08:47:11;;;;;;;4.68;2.80;;;;;;;11.77;59.20;99875.31;4919485;28;98157;-59
2021/03/15 08:49:41;;;;;;;3.75;2.60;;;;;;;11.84;59.34;99885.00;4920355;28;98022;-59
2021/03/15 08:52:11;;;;;;;3.92;2.65;;;;;;;11.86;59.57;99877.41;4919929;28;98174;-59
2021/03/15 08:54:48;;;;;;;3.40;2.35;;;;;;;11.84;60.21;99871.50;4917659;28;99219;-59
2021/03/15 08:57:34;;;;;;;2.60;2.40;;;;;;;11.67;60.29;99878.16;4920338;28;98814;-63
2021/03/15 09:00:01;;;;;;;4.75;2.50;;;;;;;11.54;61.50;99881.53;4920809;28;98077;-62
2021/03/15 09:02:37;;;;;;;4.72;2.80;;;;;;;11.37;62.19;99873.09;4918606;28;120933;-62
2021/03/15 09:05:26;;;;;;;4.07;2.83;;;;;;;11.35;61.95;99872.56;4920574;28;98626;-59
2021/03/15 09:07:55;;;;;;;4.13;2.85;;;;;;;11.28;62.25;99878.31;4919793;28;109227;-59
2021/03/15 09:10:27;;;;;;;3.75;2.75;;;;;;;11.26;62.36;99873.19;4919632;28;97978;-59
2021/03/15 09:13:15;;;;;;;3.60;2.97;;;;;;;11.22;61.53;99869.47;4919710;28;98163;-59
2021/03/15 09:15:42;;;;;;;3.25;2.60;;;;;;;11.20;62.00;99873.53;4919805;28;98937;-62
2021/03/15 09:18:41;;;;;;;4.18;3.13;;;;;;;11.13;62.61;99883.88;4917089;28;98384;-59
2021/03/15 09:21:26;;;;;;;4.80;3.03;;;;;;;11.10;62.22;99879.03;4867966;28;98107;-62
2021/03/15 09:23:55;;;;;;;4.68;3.50;;;;;;;11.00;63.26;99878.06;4919685;28;99963;-58
2021/03/15 09:26:31;;;;;;;3.58;2.92;;;;;;;11.02;63.37;99866.97;4919253;28;99309;-63
2021/03/15 09:28:57;;;;;;;4.25;3.03;;;;;;;11.04;63.01;99870.19;4916177;28;115039;-62
2021/03/15 09:31:24;;;;;;;3.63;3.20;;;;;;;11.14;62.80;99858.50;4916555;28;120845;-62
2021/03/15 09:33:50;;;;;;;3.85;3.28;;;;;;;11.25;61.44;99857.31;4918522;28;97982;-59
2021/03/15 09:36:31;;;;;;;4.63;3.70;;;;;;;11.28;61.64;99862.94;4918176;28;128231;-59
2021/03/15 09:38:58;;;;;;;5.10;3.78;;;;;;;11.40;62.07;99867.94;4919106;28;98185;-62
2021/03/15 09:41:24;;;;;;;5.35;4.38;;;;;;;11.51;61.54;99868.59;4919155;28;97917;-59
2021/03/15 09:43:51;;;;;;;7.95;5.30;;;;;;;11.59;61.17;99857.16;4919245;28;103165;-63
2021/03/15 09:46:30;;;;;;;7.07;5.07;;;;;;;11.50;61.37;99869.69;4917707;28;126317;-63
2021/03/15 09:48:56;;;;;;;8.18;5.25;;;;;;;11.44;61.68;99863.56;4916678;28;98310;-58
2021/03/15 09:51:29;;;;;;;7.85;5.28;;;;;;;11.33;62.30;99862.06;4919488;28;98068;-58
2021/03/15 09:53:55;;;;;;;;;;;;;;;11.38;62.27;99866.59;4919099;28;121981;-62
2021/03/15 09:56:23;;;;;;;6.80;4.97;;;;;;;11.30;63.06;99859.94;4919729;28;99208;-62
2021/03/15 09:58:50;;;;;;;5.68;4.55;;;;;;;11.32;62.81;99863.16;4918995;28;105714;-62
2021/03/15 10:01:20;;;;;;;6.55;4.63;;;;;;;11.41;61.80;99877.63;4900429;28;97960;-62
2021/03/15 10:03:56;;;;;;;4.97;4.22;;;;;;;11.47;61.46;99871.06;4917067;28;98595;-59
2021/03/15 10:06:22;;;;;;;5.72;4.35;;;;;;;11.48;61.71;99859.22;4918584;28;99024;-63
2021/03/15 10:08:50;;;;;;;3.95;3.40;;;;;;;11.51;61.17;99868.59;4918338;28;121864;-59
2021/03/15 10:11:16;;;;;;;4.32;3.38;;;;;;;11.52;61.61;99860.25;4919292;28;97869;-59
2021/03/15 10:13:42;;;;;;;5.03;3.45;;;;;;;11.60;62.06;99866.09;4918307;28;112489;-63
2021/03/15 10:16:09;;;;;;;3.40;3.10;;;;;;;11.55;61.86;99870.47;4918083;28;126147;-62
2021/03/15 10:18:35;;;;;;;4.53;3.28;;;;;;;11.47;62.49;99868.38;4917884;28;99405;-59
2021/03/15 10:21:01;;;;;;;3.58;3.15;;;;;;;11.45;62.26;99867.88;4919024;28;98596;-58
2021/03/15 10:23:33;;;;;;;4.15;3.08;;;;;;;11.36;63.03;99860.69;4915590;28;126757;-59
2021/03/15 10:26:03;;;;;;;4.43;2.90;;;;;;;11.25;63.25;99863.50;4917044;28;97999;-62
2021/03/15 10:28:30;;;;;;;4.00;2.63;;;;;;;11.21;63.64;99865.16;4918806;28;99181;-59
2021/03/15 10:30:56;;;;;;;3.70;2.53;;;;;;;11.09;63.29;99866.66;4918829;28;102374;-58
2021/03/15 10:33:23;;;;;;;3.38;2.67;;;;;;;11.16;63.92;99856.31;4917742;28;104460;-63
2021/03/15 10:35:54;;;;;;;3.53;2.53;;;;;;;11.17;63.78;99866.81;4918352;28;117764;-58
2021/03/15 10:38:20;;;;;;;3.35;2.60;;;;;;;11.24;63.20;99867.28;4915937;28;122625;-58
2021/03/15 10:40:46;;;;;;;3.78;2.40;;;;;;;11.28;63.29;99860.25;4901130;28;97903;-59
2021/03/15 10:43:20;;;;;;;2.60;2.15;;;;;;;11.23;63.24;99864.88;4899255;28;128222;-59
2021/03/15 10:45:46;;;;;;;3.13;2.20;;;;;;;11.22;63.63;99863.25;4918330;28;99869;-58
2021/03/15 10:48:12;;;;;;;3.63;2.13;;;;;;;11.25;63.21;99863.50;4917628;28;100702;-63
2021/03/15 10:50:40;;;;;;;2.63;1.83;;;;;;;11.17;63.68;99849.84;4918029;28;98157;-59
2021/03/15 10:53:22;;;;;;;2.38;1.80;;;;;;;11.09;64.56;99864.75;4917320;28;98775;-62
2021/03/15 10:55:49;;;;;;;2.67;1.67;;;;;;;11.19;63.77;99855.75;4918717;28;98636;-59
2021/03/15 10:58:18;;;;;;;2.55;1.65;;;;;;;11.14;63.81;99853.91;4916330;28;118951;-62
2021/03/15 11:00:59;;;;;;;2.15;1.65;;;;;;;11.06;63.94;99860.72;4918401;28;103533;-59
2021/03/15 11:03:30;;;;;;;1.73;1.63;;;;;;;11.17;63.79;99858.72;4949214;28;97878;-59
2021/03/15 11:06:13;;;;;;;2.28;1.20;;;;;;;11.24;63.23;99856.50;4916508;28;98436;-59
2021/03/15 11:08:39;;;;;;;1.77;1.63;;;;;;;11.25;63.03;99851.91;4948002;28;98147;-62
2021/03/15 11:11:20;;;;;;;1.77;1.30;;;;;;;11.26;63.11;99854.31;4900085;28;98081;-62
2021/03/15 11:13:51;;;;;;;1.98;1.42;;;;;;;11.33;62.87;99855.88;4915817;28;103523;-58
2021/03/15 11:16:18;;;;;;;1.88;1.42;;;;;;;11.39;62.62;99852.00;4918505;28;98511;-59
2021/03/15 11:18:44;;;;;;;1.88;1.23;;;;;;;11.40;62.55;99848.25;4917167;28;98019;-62
2021/03/15 11:21:11;;;;;;;1.60;1.13;;;;;;;11.45;62.32;99850.88;4917452;28;98051;-62
2021/03/15 11:23:39;;;;;;;1.48;1.08;;;;;;;11.39;62.88;99852.00;4917546;28;99094;-59
2021/03/15 11:26:11;;;;;;;1.60;1.25;;;;;;;11.33;63.37;99851.28;4918293;28;98709;-62
2021/03/15 11:28:39;;;;;;;1.85;1.17;;;;;;;11.31;63.96;99848.84;4918411;28;98175;-59
2021/03/15 11:31:07;;;;;;;1.90;1.15;;;;;;;11.35;63.57;99842.88;4918015;28;98067;-58
2021/03/15 11:33:33;;;;;;;1.73;0.93;;;;;;;11.40;63.06;99846.34;4948591;28;99947;-59
2021/03/15 11:36:01;;;;;;;1.60;1.10;;;;;;;11.41;62.68;99837.16;4917798;28;98765;-59
2021/03/15 11:38:27;;;;;;;2.03;1.13;;;;;;;11.48;62.69;99843.00;4947656;28;102490;-59
2021/03/15 11:40:54;;;;;;;1.40;0.93;;;;;;;11.62;62.29;99845.81;4918035;28;98219;-62
2021/03/15 11:43:20;;;;;;;1.50;0.90;;;;;;;11.62;62.77;99847.69;4916492;28;120763;-59
2021/03/15 11:45:47;;;;;;;1.25;0.80;;;;;;;11.65;62.87;99836.34;4917542;28;99197;-59
2021/03/15 11:48:13;;;;;;;1.27;0.80;;;;;;;11.86;61.96;99839.59;4916741;28;127704;-59
2021/03/15 11:50:39;;;;;;;1.42;0.85;;;;;;;12.11;61.51;99835.75;4917182;28;98050;-63